Whitney, Mississippi
Current Conditions -  °F | °C
As of 10:55 PM on Saturday 25 Oct 2014 (Local Time) from KRNV Reporting Station
Clear Clear  
Wind Chill: 65°   Ceiling: Unl
Heat Index: 65°   Visibility: 10mi
Dew Point: 64°   Wind: 5mph
Humidity: 94%   Direction: 210°SSW
Pressure: 30.05"   Gusts: NA
Location:  33.8731°N, 90.5512°W
Report Text: KRNV 260355Z AUTO 21004KT 10SM CLR 19/18 A3005 RMK AO2 T01850175
Loading
Personal Weather Stations






























Interactive Weather Map New forecast layout! Learn more

10-Day Weather Forecast

Advertisements
Track Severe Weather on mobile